createdAt,value
2023-03-10T00:00:05.971Z,21.37
2023-03-10T00:05:10.370Z,21.33
2023-03-10T00:10:16.554Z,22.03
2023-03-10T00:15:18.694Z,21.83
2023-03-10T00:20:25.133Z,19.90
2023-03-10T00:25:26.899Z,20.90
2023-03-10T00:30:31.220Z,21.70
2023-03-10T00:35:40.738Z,22.37
2023-03-10T00:40:42.508Z,21.40
2023-03-10T00:45:48.748Z,20.97
2023-03-10T00:50:55.256Z,21.43
2023-03-10T00:56:02.853Z,21.87
2023-03-10T01:01:05.504Z,21.77
2023-03-10T01:06:07.488Z,20.57
2023-03-10T01:11:15.653Z,21.13
2023-03-10T01:16:19.642Z,22.63
2023-03-10T01:21:26.929Z,25.13
2023-03-10T01:26:29.585Z,25.20
2023-03-10T01:31:33.467Z,25.83
2023-03-10T01:36:44.475Z,26.27
2023-03-10T01:41:50.502Z,26.17
2023-03-10T01:46:55.919Z,25.57
2023-03-10T01:52:04.839Z,28.13
2023-03-10T01:57:07.659Z,27.90
2023-03-10T02:02:10.341Z,29.53
2023-03-10T02:07:13.728Z,31.77
2023-03-10T02:12:16.009Z,32.57
2023-03-10T02:17:22.016Z,34.90
2023-03-10T02:22:23.778Z,35.73
2023-03-10T02:27:34.068Z,39.67
2023-03-10T02:32:42.405Z,41.73
2023-03-10T02:37:46.339Z,40.73
2023-03-10T02:42:49.273Z,40.37
2023-03-10T02:47:53.950Z,40.50
2023-03-10T02:53:13.676Z,39.67
2023-03-10T02:58:15.644Z,36.77
2023-03-10T03:03:21.927Z,32.53
2023-03-10T03:08:24.226Z,30.87
2023-03-10T03:13:30.884Z,31.30
2023-03-10T03:18:37.719Z,29.73
2023-03-10T03:23:40.424Z,29.67
2023-03-10T03:28:42.998Z,29.53
2023-03-10T03:33:45.158Z,27.30
2023-03-10T03:38:47.227Z,26.57
2023-03-10T03:43:51.005Z,27.30
2023-03-10T03:48:53.025Z,27.27
2023-03-10T03:53:54.821Z,25.33
2023-03-10T03:58:59.501Z,25.13
2023-03-10T04:04:01.622Z,26.43
2023-03-10T04:09:06.609Z,24.57
2023-03-10T04:14:09.277Z,25.10
2023-03-10T04:19:14.111Z,23.33
2023-03-10T04:24:22.033Z,23.63
2023-03-10T04:29:24.557Z,25.13
2023-03-10T04:34:30.398Z,25.10
2023-03-10T04:39:36.800Z,25.23
2023-03-10T04:44:41.400Z,25.67
2023-03-10T04:49:45.893Z,26.63
2023-03-10T04:54:49.229Z,24.50
2023-03-10T04:59:53.623Z,24.60
2023-03-10T05:04:58.883Z,22.87
2023-03-10T05:10:00.702Z,24.57
2023-03-10T05:15:09.491Z,24.10
2023-03-10T05:20:13.857Z,24.10
2023-03-10T05:25:19.361Z,24.97
2023-03-10T05:30:24.775Z,24.60
2023-03-10T05:35:29.474Z,25.83
2023-03-10T05:40:31.895Z,25.80
2023-03-10T05:45:41.536Z,23.83
2023-03-10T05:50:43.368Z,26.27
2023-03-10T05:55:45.114Z,26.80
2023-03-10T06:00:49.895Z,25.00
2023-03-10T06:05:51.824Z,27.83
2023-03-10T06:10:56.622Z,26.97
2023-03-10T06:16:04.256Z,31.30
2023-03-10T06:21:11.075Z,27.10
2023-03-10T06:26:15.983Z,31.00
2023-03-10T06:31:21.086Z,26.77
2023-03-10T06:36:23.669Z,24.63
2023-03-10T06:41:26.125Z,24.87
2023-03-10T06:46:28.902Z,30.17
2023-03-10T06:51:30.602Z,24.30
2023-03-10T06:56:37.546Z,22.70
2023-03-10T07:01:39.404Z,22.63
2023-03-10T07:06:43.513Z,23.43
2023-03-10T07:11:45.283Z,25.70
2023-03-10T07:16:47.525Z,23.87
2023-03-10T07:21:49.233Z,23.50
2023-03-10T07:26:55.569Z,25.20
2023-03-10T07:31:57.261Z,25.40
2023-03-10T07:37:01.660Z,25.27
2023-03-10T07:42:10.893Z,27.23
2023-03-10T07:47:12.664Z,28.27
2023-03-10T07:52:15.670Z,27.63
2023-03-10T07:57:17.374Z,27.37
2023-03-10T08:02:21.329Z,29.93
2023-03-10T08:07:23.145Z,29.23
2023-03-10T08:12:27.133Z,29.63
2023-03-10T08:17:34.552Z,31.80
2023-03-10T08:22:39.030Z,28.60
2023-03-10T08:27:42.617Z,28.60
2023-03-10T08:32:46.950Z,28.10
2023-03-10T08:37:48.607Z,27.03
2023-03-10T08:42:55.131Z,28.30
2023-03-10T08:47:59.140Z,29.87
2023-03-10T08:53:04.113Z,27.23
2023-03-10T08:58:08.374Z,29.03
2023-03-10T09:03:15.668Z,28.20
2023-03-10T09:08:22.205Z,27.77
2023-03-10T09:13:27.635Z,32.97
2023-03-10T09:18:31.737Z,32.03
2023-03-10T09:23:38.335Z,32.73
2023-03-10T09:28:42.745Z,33.10
2023-03-10T09:33:45.557Z,31.47
2023-03-10T09:38:52.585Z,29.33
2023-03-10T09:44:02.430Z,29.47
2023-03-10T09:49:10.100Z,27.53
2023-03-10T09:54:21.031Z,28.23
2023-03-10T09:59:34.362Z,25.17
2023-03-10T10:04:41.533Z,27.53
2023-03-10T10:09:57.312Z,27.93
2023-03-10T10:15:16.997Z,25.80
2023-03-10T10:20:28.331Z,28.60
2023-03-10T10:25:33.188Z,29.27
2023-03-10T10:30:40.112Z,27.90
2023-03-10T10:36:09.896Z,30.13
2023-03-10T10:41:32.655Z,28.17
2023-03-10T10:46:36.746Z,24.90
2023-03-10T10:51:38.815Z,25.57
2023-03-10T10:56:54.864Z,26.27
2023-03-10T11:02:04.422Z,23.47
2023-03-10T11:07:19.924Z,23.93
2023-03-10T11:12:32.050Z,26.23
2023-03-10T11:17:42.830Z,27.13
2023-03-10T11:23:12.511Z,26.73
2023-03-10T11:28:51.300Z,31.70
2023-03-10T11:34:20.700Z,38.60
2023-03-10T11:39:48.954Z,26.00
2023-03-10T11:45:24.686Z,24.33
2023-03-10T11:50:34.272Z,22.23
2023-03-10T11:55:36.373Z,23.67
2023-03-10T12:00:41.672Z,24.33
2023-03-10T12:05:50.875Z,23.50
2023-03-10T12:10:52.822Z,21.20
2023-03-10T12:16:00.214Z,25.50
2023-03-10T12:21:21.000Z,23.57
2023-03-10T12:26:38.035Z,22.33
2023-03-10T12:31:39.942Z,22.17
2023-03-10T12:36:46.347Z,21.77
2023-03-10T12:41:53.045Z,22.23
2023-03-10T12:46:56.167Z,20.87
2023-03-10T12:52:07.698Z,21.97
2023-03-10T12:57:39.602Z,21.70
2023-03-10T13:02:51.082Z,20.40
2023-03-10T13:07:55.309Z,22.20
2023-03-10T13:13:02.208Z,24.00
2023-03-10T13:18:11.114Z,25.43
2023-03-10T13:23:23.526Z,22.87
2023-03-10T13:28:27.531Z,24.27
2023-03-10T13:33:29.313Z,23.67
2023-03-10T13:38:33.435Z,25.97
2023-03-10T13:43:39.991Z,22.73
2023-03-10T13:48:44.946Z,24.17
2023-03-10T13:53:52.598Z,23.87
2023-03-10T13:58:58.364Z,24.53
2023-03-10T14:04:06.860Z,23.90
2023-03-10T14:09:14.589Z,25.87
2023-03-10T14:14:27.929Z,23.97
2023-03-10T14:19:42.574Z,23.43
2023-03-10T14:24:44.549Z,23.27
2023-03-10T14:29:50.687Z,23.53
2023-03-10T14:35:00.700Z,24.37
2023-03-10T14:40:04.712Z,24.20
2023-03-10T14:45:28.876Z,24.60
2023-03-10T14:50:31.698Z,27.02
2023-03-10T14:55:36.687Z,23.00
2023-03-10T15:00:38.982Z,23.03
2023-03-10T15:05:48.984Z,20.67
2023-03-10T15:10:52.081Z,21.30
2023-03-10T15:15:56.396Z,19.40
2023-03-10T15:21:05.040Z,20.63
2023-03-10T15:26:13.054Z,20.70
2023-03-10T15:31:14.774Z,22.83
2023-03-10T15:36:19.042Z,22.23
2023-03-10T15:41:23.862Z,31.52
2023-03-10T15:46:25.686Z,26.40
2023-03-10T15:51:35.689Z,25.63
2023-03-10T15:56:37.428Z,25.33
2023-03-10T16:01:39.729Z,35.43
2023-03-10T16:06:41.516Z,27.53
2023-03-10T16:11:43.328Z,21.93
2023-03-10T16:16:47.545Z,22.40
2023-03-10T16:21:52.653Z,21.10
2023-03-10T16:26:54.410Z,25.07
2023-03-10T16:31:58.743Z,24.47
2023-03-10T16:37:02.525Z,24.80
2023-03-10T16:42:09.438Z,26.90
2023-03-10T16:47:12.405Z,24.87
2023-03-10T16:52:16.969Z,26.00
2023-03-10T16:57:23.569Z,22.70
2023-03-10T17:02:25.404Z,20.63
2023-03-10T17:07:27.209Z,21.83
2023-03-10T17:12:31.416Z,20.73
2023-03-10T17:17:35.630Z,16.30
2023-03-10T17:22:38.860Z,20.37
2023-03-10T17:27:43.759Z,21.37
2023-03-10T17:32:51.714Z,16.57
2023-03-10T17:37:53.468Z,18.43
2023-03-10T17:42:59.951Z,20.00
2023-03-10T17:48:10.174Z,20.63
2023-03-10T17:53:14.329Z,19.97
2023-03-10T17:58:18.371Z,20.17
2023-03-10T18:03:22.924Z,20.17
2023-03-10T18:08:26.102Z,21.73
2023-03-10T18:13:31.004Z,20.40
2023-03-10T18:18:35.103Z,19.10
2023-03-10T18:23:42.820Z,20.17
2023-03-10T18:28:47.158Z,15.77
2023-03-10T18:33:54.965Z,19.73
2023-03-10T18:38:56.786Z,22.33
2023-03-10T18:44:00.026Z,22.93
2023-03-10T18:49:01.862Z,25.50
2023-03-10T18:54:05.356Z,24.77
2023-03-10T18:59:09.470Z,26.60
2023-03-10T19:04:11.142Z,20.77
2023-03-10T19:09:19.074Z,25.50
2023-03-10T19:14:23.413Z,20.63
2023-03-10T19:19:30.518Z,23.63
2023-03-10T19:24:34.615Z,29.83
2023-03-10T19:29:36.645Z,28.10
2023-03-10T19:34:40.963Z,14.87
2023-03-10T19:39:42.703Z,24.77
2023-03-10T19:44:47.614Z,24.23
2023-03-10T19:49:51.968Z,23.20
2023-03-10T19:54:53.981Z,18.90
2023-03-10T19:59:55.780Z,13.57
2023-03-10T20:04:57.770Z,16.60
2023-03-10T20:09:59.504Z,15.53
2023-03-10T20:15:01.400Z,19.27
2023-03-10T20:20:10.105Z,18.23
2023-03-10T20:25:14.671Z,15.40
2023-03-10T20:30:27.777Z,14.87
2023-03-10T20:35:33.740Z,12.23
2023-03-10T20:40:38.400Z,6.00
2023-03-10T20:45:42.750Z,6.07
2023-03-10T20:50:47.527Z,3.67
2023-03-10T20:55:49.304Z,2.23
2023-03-10T21:00:53.530Z,2.80
2023-03-10T21:05:57.609Z,3.40
2023-03-10T21:10:59.328Z,3.23
2023-03-10T21:16:03.190Z,3.97
2023-03-10T21:21:09.724Z,3.80
2023-03-10T21:26:18.496Z,4.17
2023-03-10T21:31:25.307Z,3.60
2023-03-10T21:36:27.841Z,5.17
2023-03-10T21:41:34.510Z,1.40
2023-03-10T21:46:37.008Z,1.57
2023-03-10T21:51:38.948Z,1.77
2023-03-10T21:56:40.717Z,1.80
2023-03-10T22:01:42.872Z,1.80
2023-03-10T22:06:47.295Z,1.83
2023-03-10T22:11:48.977Z,3.00
2023-03-10T22:16:50.680Z,2.60
2023-03-10T22:21:54.583Z,3.33
2023-03-10T22:26:58.561Z,3.47
2023-03-10T22:32:03.007Z,3.60
2023-03-10T22:37:04.755Z,3.90
2023-03-10T22:42:13.538Z,3.30
2023-03-10T22:47:15.269Z,2.97
2023-03-10T22:52:17.205Z,3.03
2023-03-10T22:57:21.280Z,3.50
2023-03-10T23:02:22.948Z,3.53
2023-03-10T23:07:29.414Z,3.33
2023-03-10T23:12:33.711Z,2.60
2023-03-10T23:17:40.307Z,2.23
2023-03-10T23:22:44.555Z,1.83
2023-03-10T23:27:49.188Z,1.40
2023-03-10T23:32:53.977Z,1.50
2023-03-10T23:37:59.981Z,1.40
2023-03-10T23:43:08.118Z,1.73
2023-03-10T23:48:16.074Z,2.13
2023-03-10T23:53:22.329Z,1.97
2023-03-10T23:58:27.825Z,2.20
